createdAt,value
2022-11-23T00:04:39.669Z,99040.38
2022-11-23T00:09:41.466Z,99055.34
2022-11-23T00:14:43.386Z,99065.47
2022-11-23T00:19:45.322Z,99067.63
2022-11-23T00:24:47.294Z,99069.00
2022-11-23T00:29:49.301Z,99068.88
2022-11-23T00:34:51.017Z,99080.44
2022-11-23T00:39:52.880Z,99080.38
2022-11-23T00:44:54.814Z,99085.84
2022-11-23T00:49:56.724Z,99076.44
2022-11-23T00:54:58.570Z,99069.09
2022-11-23T01:00:01.189Z,99076.31
2022-11-23T01:05:04.141Z,99067.19
2022-11-23T01:10:06.482Z,99076.31
2022-11-23T01:15:08.984Z,99071.03
2022-11-23T01:20:11.081Z,99086.69
2022-11-23T01:25:12.926Z,99083.09
2022-11-23T01:30:14.891Z,99081.63
2022-11-23T01:35:16.788Z,99082.69
2022-11-23T01:40:18.847Z,99091.00
2022-11-23T01:45:34.567Z,99095.13
2022-11-23T01:50:37.086Z,99100.38
2022-11-23T01:55:39.300Z,99094.38
2022-11-23T02:00:41.220Z,99097.53
2022-11-23T02:05:47.834Z,99092.78
2022-11-23T02:10:49.699Z,99101.75
2022-11-23T02:15:52.728Z,99099.34
2022-11-23T02:20:55.328Z,99099.69
2022-11-23T02:25:59.673Z,99104.75
2022-11-23T02:31:02.454Z,99104.97
2022-11-23T02:36:27.154Z,99113.88
2022-11-23T02:41:35.682Z,99113.44
2022-11-23T02:46:38.037Z,99109.09
2022-11-23T02:51:39.903Z,99107.59
2022-11-23T02:56:41.813Z,99113.84
2022-11-23T03:01:43.762Z,99114.09
2022-11-23T03:06:45.525Z,99111.53
2022-11-23T03:11:47.703Z,99102.44
2022-11-23T03:16:49.668Z,99107.50
2022-11-23T03:21:51.566Z,99115.25
2022-11-23T03:26:53.361Z,99123.81
2022-11-23T03:31:56.120Z,99119.91
2022-11-23T03:36:57.906Z,99121.50
2022-11-23T03:41:59.729Z,99129.59
2022-11-23T03:47:01.617Z,99131.47
2022-11-23T03:52:03.489Z,99123.22
2022-11-23T03:57:05.390Z,99120.31
2022-11-23T04:02:08.275Z,99127.44
2022-11-23T04:07:10.248Z,99127.44
2022-11-23T04:12:12.295Z,99141.78
2022-11-23T04:17:14.169Z,99140.50
2022-11-23T04:22:16.054Z,99131.78
2022-11-23T04:27:18.047Z,99135.50
2022-11-23T04:32:19.926Z,99136.56
2022-11-23T04:37:21.637Z,99121.16
2022-11-23T04:42:23.475Z,99122.97
2022-11-23T04:47:25.913Z,99114.91
2022-11-23T04:52:27.962Z,99125.53
2022-11-23T04:57:29.813Z,99119.47
2022-11-23T05:02:31.750Z,99120.00
2022-11-23T05:07:33.678Z,99115.34
2022-11-23T05:12:36.713Z,99115.13
2022-11-23T05:17:38.622Z,99113.88
2022-11-23T05:22:40.543Z,99114.53
2022-11-23T05:27:42.465Z,99130.09
2022-11-23T05:32:44.405Z,99115.25
2022-11-23T05:37:46.425Z,99116.84
2022-11-23T05:42:48.503Z,99115.84
2022-11-23T05:47:54.791Z,99110.06
2022-11-23T05:52:58.131Z,99116.09
2022-11-23T05:57:59.853Z,99120.22
2022-11-23T06:03:02.164Z,99124.88
2022-11-23T06:08:04.058Z,99111.88
2022-11-23T06:13:05.940Z,99110.38
2022-11-23T06:18:07.771Z,99103.06
2022-11-23T06:23:09.749Z,99110.06
2022-11-23T06:28:11.836Z,99114.38
2022-11-23T06:33:13.604Z,99106.31
2022-11-23T06:38:15.549Z,99117.69
2022-11-23T06:43:17.660Z,99110.78
2022-11-23T06:48:19.614Z,99125.72
2022-11-23T06:53:21.399Z,99126.81
2022-11-23T06:58:23.342Z,99138.47
2022-11-23T07:03:25.316Z,99135.00
2022-11-23T07:08:27.709Z,99138.16
2022-11-23T07:13:29.931Z,99150.47
2022-11-23T07:18:31.851Z,99159.69
2022-11-23T07:23:33.866Z,99166.47
2022-11-23T07:28:35.882Z,99178.56
2022-11-23T07:33:37.967Z,99180.81
2022-11-23T07:38:40.159Z,99190.34
2022-11-23T07:43:42.146Z,99187.16
2022-11-23T07:48:44.233Z,99200.19
2022-11-23T07:53:46.855Z,99206.66
2022-11-23T07:58:48.695Z,99203.50
2022-11-23T08:03:50.628Z,99209.53
2022-11-23T08:08:52.408Z,99213.25
2022-11-23T08:13:55.071Z,99212.72
2022-11-23T08:18:57.305Z,99227.03
2022-11-23T08:23:59.137Z,99218.53
2022-11-23T08:29:01.014Z,99220.16
2022-11-23T08:34:03.757Z,99218.44
2022-11-23T08:39:05.941Z,99229.88
2022-11-23T08:44:11.638Z,99232.66
2022-11-23T08:49:13.569Z,99233.41
2022-11-23T08:54:15.619Z,99233.19
2022-11-23T08:59:17.880Z,99228.09
2022-11-23T09:04:20.965Z,99219.00
2022-11-23T09:09:22.844Z,99218.25
2022-11-23T09:14:24.957Z,99222.56
2022-11-23T09:19:26.856Z,99209.00
2022-11-23T09:24:28.969Z,99201.69
2022-11-23T09:29:30.954Z,99204.66
2022-11-23T09:34:33.124Z,99197.13
2022-11-23T09:39:35.270Z,99193.41
2022-11-23T09:44:59.148Z,99184.72
2022-11-23T09:50:15.320Z,99178.16
2022-11-23T09:55:39.659Z,99175.19
2022-11-23T10:01:11.881Z,99172.31
2022-11-23T10:06:14.315Z,99161.50
2022-11-23T10:12:01.831Z,99161.59
2022-11-23T10:17:12.043Z,99147.59
2022-11-23T10:22:55.168Z,99134.25
2022-11-23T10:28:01.806Z,99142.84
2022-11-23T10:33:31.188Z,99131.06
2022-11-23T10:38:33.127Z,99130.03
2022-11-23T10:44:23.061Z,99122.91
2022-11-23T10:49:35.450Z,99129.59
2022-11-23T10:54:49.787Z,99107.00
2022-11-23T11:00:00.766Z,99112.72
2022-11-23T11:06:06.836Z,99108.81
2022-11-23T11:11:02.764Z,99091.94
2022-11-23T11:16:06.529Z,99091.19
2022-11-23T11:21:20.892Z,99090.25
2022-11-23T11:26:25.329Z,99092.47
2022-11-23T11:31:47.679Z,99086.31
2022-11-23T11:37:00.258Z,99077.94
2022-11-23T11:42:07.332Z,99061.59
2022-11-23T11:47:31.671Z,99050.25
2022-11-23T11:52:39.638Z,99034.97
2022-11-23T11:58:10.119Z,99042.41
2022-11-23T12:03:33.336Z,99032.66
2022-11-23T12:09:01.888Z,99031.47
2022-11-23T12:14:05.922Z,99017.19
2022-11-23T12:19:15.640Z,99018.44
2022-11-23T12:24:33.649Z,99023.75
2022-11-23T12:29:47.818Z,99012.50
2022-11-23T12:35:10.657Z,99001.91
2022-11-23T12:40:47.805Z,99005.53
2022-11-23T12:46:26.905Z,99008.56
2022-11-23T12:52:02.639Z,98999.81
2022-11-23T12:57:23.208Z,99001.69
2022-11-23T13:02:37.273Z,99000.22
2022-11-23T13:08:10.545Z,99004.03
2022-11-23T13:13:24.418Z,99001.06
2022-11-23T13:18:38.325Z,99001.69
2022-11-23T13:23:40.534Z,99003.59
2022-11-23T13:28:43.959Z,99001.59
2022-11-23T13:33:48.476Z,98992.03
2022-11-23T13:38:50.294Z,98981.75
2022-11-23T13:43:52.280Z,98985.16
2022-11-23T13:49:00.035Z,98997.47
2022-11-23T13:54:03.687Z,99004.34
2022-11-23T13:59:24.162Z,99010.81
2022-11-23T14:04:47.080Z,99015.00
2022-11-23T14:10:09.631Z,99027.59
2022-11-23T14:15:22.386Z,99047.53
2022-11-23T14:20:49.632Z,99063.00
2022-11-23T14:26:06.770Z,99058.00
2022-11-23T14:31:14.457Z,99072.13
2022-11-23T14:36:20.172Z,99080.09
2022-11-23T14:41:27.982Z,99095.66
2022-11-23T14:46:30.078Z,99110.28
2022-11-23T14:51:33.163Z,99116.66
2022-11-23T14:56:39.576Z,99113.88
2022-11-23T15:01:51.418Z,99130.22
2022-11-23T15:06:59.705Z,99137.09
2022-11-23T15:12:28.330Z,99161.50
2022-11-23T15:17:30.454Z,99169.13
2022-11-23T15:22:34.939Z,99180.38
2022-11-23T15:27:40.160Z,99193.84
2022-11-23T15:32:42.148Z,99196.72
2022-11-23T15:37:46.879Z,99206.34
2022-11-23T15:42:51.468Z,99208.81
2022-11-23T15:47:53.460Z,99203.06
2022-11-23T15:52:55.464Z,99219.50
2022-11-23T15:57:58.306Z,99224.16
2022-11-23T16:03:24.755Z,99217.19
2022-11-23T16:08:26.917Z,99226.63
2022-11-23T16:13:39.567Z,99222.47
2022-11-23T16:18:52.239Z,99214.72
2022-11-23T16:23:56.587Z,99240.16
2022-11-23T16:28:59.708Z,99244.63
2022-11-23T16:34:01.743Z,99256.28
2022-11-23T16:39:05.830Z,99260.44
2022-11-23T16:44:08.080Z,99257.13
2022-11-23T16:49:28.137Z,99259.25
2022-11-23T16:54:30.100Z,99273.59
2022-11-23T16:59:32.665Z,99279.63
2022-11-23T17:04:34.942Z,99280.56
2022-11-23T17:09:37.586Z,99290.84
2022-11-23T17:14:40.187Z,99300.53
2022-11-23T17:19:42.015Z,99317.25
2022-11-23T17:24:44.378Z,99325.84
2022-11-23T17:29:47.011Z,99339.53
2022-11-23T17:34:49.311Z,99340.34
2022-11-23T17:39:51.456Z,99345.97
2022-11-23T17:44:53.326Z,99351.41
2022-11-23T17:49:55.769Z,99364.53
2022-11-23T17:55:01.009Z,99370.28
2022-11-23T18:00:03.889Z,99371.03
2022-11-23T18:05:06.152Z,99379.47
2022-11-23T18:10:10.348Z,99395.03
2022-11-23T18:15:12.220Z,99396.66
2022-11-23T18:20:14.061Z,99408.41
2022-11-23T18:25:16.470Z,99417.53
2022-11-23T18:30:18.533Z,99425.16
2022-11-23T18:35:20.486Z,99422.28
2022-11-23T18:40:22.529Z,99445.28
2022-11-23T18:45:24.946Z,99454.00
2022-11-23T18:50:27.197Z,99461.94
2022-11-23T18:55:29.359Z,99460.03
2022-11-23T19:00:31.270Z,99476.09
2022-11-23T19:05:35.233Z,99472.75
2022-11-23T19:10:38.522Z,99482.75
2022-11-23T19:15:40.296Z,99501.44
2022-11-23T19:20:42.407Z,99501.44
2022-11-23T19:25:44.243Z,99506.91
2022-11-23T19:30:46.130Z,99504.56
2022-11-23T19:35:47.891Z,99526.41
2022-11-23T19:40:55.102Z,99532.84
2022-11-23T19:45:58.188Z,99546.28
2022-11-23T19:51:03.486Z,99553.09
2022-11-23T19:56:13.460Z,99561.91
2022-11-23T20:01:17.395Z,99568.22
2022-11-23T20:06:28.375Z,99565.63
2022-11-23T20:11:31.951Z,99580.38
2022-11-23T20:16:34.074Z,99586.06
2022-11-23T20:21:37.287Z,99582.56
2022-11-23T20:26:39.382Z,99587.56
2022-11-23T20:31:41.257Z,99598.25
2022-11-23T20:36:43.140Z,99594.56
2022-11-23T20:41:45.255Z,99610.75
2022-11-23T20:47:01.843Z,99614.53
2022-11-23T20:52:04.843Z,99613.69
2022-11-23T20:57:06.735Z,99620.81
2022-11-23T21:02:11.660Z,99627.03
2022-11-23T21:07:13.724Z,99619.94
2022-11-23T21:12:34.136Z,99627.88
2022-11-23T21:17:36.015Z,99637.63
2022-11-23T21:22:38.058Z,99642.56
2022-11-23T21:27:39.897Z,99642.09
2022-11-23T21:32:41.700Z,99658.94
2022-11-23T21:37:43.662Z,99665.38
2022-11-23T21:42:45.593Z,99660.00
2022-11-23T21:47:48.569Z,99668.88
2022-11-23T21:52:50.602Z,99667.44
2022-11-23T21:57:53.344Z,99678.13
2022-11-23T22:02:55.257Z,99692.63
2022-11-23T22:08:27.693Z,99690.28
2022-11-23T22:13:20.285Z,99698.22
2022-11-23T22:18:22.363Z,99711.78
2022-11-23T22:23:24.202Z,99713.34
2022-11-23T22:28:26.125Z,99716.84
2022-11-23T22:33:27.914Z,99724.53
2022-11-23T22:38:32.386Z,99727.97
2022-11-23T22:43:34.327Z,99738.50
2022-11-23T22:48:37.844Z,99741.72
2022-11-23T22:53:44.694Z,99747.50
2022-11-23T22:58:48.414Z,99750.16
2022-11-23T23:03:58.348Z,99753.16
2022-11-23T23:09:01.428Z,99757.06
2022-11-23T23:14:03.449Z,99761.19
2022-11-23T23:19:06.468Z,99762.56
2022-11-23T23:24:09.689Z,99775.31
2022-11-23T23:29:11.575Z,99779.09
2022-11-23T23:34:13.583Z,99787.56
2022-11-23T23:39:15.634Z,99783.63
2022-11-23T23:44:18.100Z,99789.59
2022-11-23T23:49:20.140Z,99796.53
2022-11-23T23:54:22.087Z,99794.34
2022-11-23T23:59:24.006Z,99791.50
